Pixley, California
Current Conditions -  °F | °C
As of 4:15 AM on Saturday 20 Dec 2014 (Local Time) from KPTV Reporting Station
Broken Clouds Broken Clouds  
Wind Chill: 46°   Ceiling: 9000
Heat Index: 48°   Visibility: 10mi
Dew Point: 41°   Wind: 5mph
Humidity: 76%   Direction: 100°E
Pressure: 30.16"   Gusts: NA
Location:  35.97°N, 119.29°W
Report Text: KPTV 201215Z AUTO 10004KT 10SM BKN090 09/05 A3016 RMK AO1
Loading
Personal Weather Stations






























Interactive Weather Map New forecast layout! Learn more

10-Day Weather Forecast

Advertisements
Track Severe Weather on mobile